Swan Island, Australia
Current Conditions -  °F | °C
As of 9:46 AM on Sunday 26 Oct 2014 (Local Time) from YMLT Reporting Station
Drizzle Drizzle  
Wind Chill: 55°   Ceiling: 1000
Heat Index: 55°   Visibility: 4mi
Dew Point: 50°   Wind: 6mph
Humidity: 82%   Direction: 150°SSE
Pressure: 29.91"   Gusts: NA
Location:  40.73°S, 148.12°E
Report Text: YMLT 252246Z AUTO 15005KT 6000 DZ BKN010 OVC048 13/10 Q1013
Loading
Personal Weather Stations






























Interactive Weather Map
Tropical Storm Tracking
New forecast layout! Learn more

10-Day Weather Forecast

Advertisements
Track Severe Weather on mobile